createdAt,value
2023-08-25T00:02:09.042Z,1.03
2023-08-25T00:04:39.260Z,1.10
2023-08-25T00:07:08.841Z,1.10
2023-08-25T00:09:39.286Z,1.07
2023-08-25T00:12:09.108Z,1.30
2023-08-25T00:14:38.693Z,1.10
2023-08-25T00:17:09.544Z,1.17
2023-08-25T00:19:39.162Z,1.37
2023-08-25T00:22:09.227Z,1.10
2023-08-25T00:24:38.800Z,1.10
2023-08-25T00:27:08.454Z,1.00
2023-08-25T00:29:38.038Z,0.97
2023-08-25T00:32:07.955Z,1.10
2023-08-25T00:34:37.687Z,1.10
2023-08-25T00:37:07.418Z,1.20
2023-08-25T00:39:37.013Z,1.13
2023-08-25T00:42:06.893Z,0.90
2023-08-25T00:44:36.874Z,0.83
2023-08-25T00:47:07.974Z,1.20
2023-08-25T00:49:38.224Z,1.40
2023-08-25T00:52:08.334Z,1.70
2023-08-25T00:54:39.947Z,1.20
2023-08-25T00:57:09.600Z,0.97
2023-08-25T00:59:39.931Z,1.17
2023-08-25T01:02:10.932Z,1.20
2023-08-25T01:04:40.818Z,1.00
2023-08-25T01:07:10.395Z,0.90
2023-08-25T01:09:40.553Z,1.10
2023-08-25T01:12:18.315Z,0.90
2023-08-25T01:15:07.293Z,1.10
2023-08-25T01:17:59.244Z,1.33
2023-08-25T01:20:30.003Z,1.30
2023-08-25T01:23:07.375Z,1.20
2023-08-25T01:25:38.292Z,0.80
2023-08-25T01:28:08.281Z,1.07
2023-08-25T01:30:39.252Z,1.00
2023-08-25T01:33:09.133Z,1.20
2023-08-25T01:36:08.776Z,0.90
2023-08-25T01:38:55.327Z,1.07
2023-08-25T01:41:48.512Z,0.90
2023-08-25T01:44:23.374Z,1.10
2023-08-25T01:47:03.133Z,1.20
2023-08-25T01:49:33.806Z,1.17
2023-08-25T01:52:05.050Z,1.30
2023-08-25T01:54:34.681Z,1.40
2023-08-25T01:57:04.240Z,1.03
2023-08-25T01:59:33.770Z,1.20
2023-08-25T02:02:03.346Z,1.13
2023-08-25T02:04:32.945Z,1.20
2023-08-25T02:07:03.646Z,1.20
2023-08-25T02:09:33.574Z,1.00
2023-08-25T02:12:03.384Z,0.93
2023-08-25T02:14:33.301Z,0.90
2023-08-25T02:17:03.203Z,0.90
2023-08-25T02:19:32.764Z,0.90
2023-08-25T02:22:02.314Z,0.90
2023-08-25T02:24:31.949Z,0.90
2023-08-25T02:27:01.484Z,0.90
2023-08-25T02:29:31.032Z,1.00
2023-08-25T02:32:00.717Z,1.10
2023-08-25T02:34:30.745Z,1.20
2023-08-25T02:37:00.370Z,1.40
2023-08-25T02:39:29.908Z,1.40
2023-08-25T02:42:00.053Z,1.33
2023-08-25T02:44:29.667Z,1.10
2023-08-25T02:47:00.282Z,0.97
2023-08-25T02:49:30.205Z,0.80
2023-08-25T02:51:59.770Z,1.20
2023-08-25T02:54:29.277Z,1.20
2023-08-25T02:56:58.999Z,1.20
2023-08-25T02:59:29.388Z,1.23
2023-08-25T03:01:58.936Z,0.83
2023-08-25T03:04:28.502Z,1.20
2023-08-25T03:06:58.037Z,1.07
2023-08-25T03:09:28.674Z,1.40
2023-08-25T03:11:58.225Z,1.00
2023-08-25T03:14:28.043Z,1.07
2023-08-25T03:16:57.578Z,1.13
2023-08-25T03:19:27.124Z,1.10
2023-08-25T03:21:56.668Z,1.30
2023-08-25T03:24:26.236Z,1.30
2023-08-25T03:26:55.769Z,1.20
2023-08-25T03:29:25.802Z,1.40
2023-08-25T03:31:55.343Z,1.23
2023-08-25T03:34:24.892Z,1.07
2023-08-25T03:36:54.508Z,1.30
2023-08-25T03:39:25.479Z,1.30
2023-08-25T03:41:55.033Z,1.50
2023-08-25T03:44:24.582Z,1.10
2023-08-25T03:46:54.254Z,1.23
2023-08-25T03:49:25.683Z,1.00
2023-08-25T03:51:55.240Z,1.40
2023-08-25T03:54:24.784Z,1.60
2023-08-25T03:56:54.331Z,1.10
2023-08-25T03:59:23.869Z,1.30
2023-08-25T04:01:54.563Z,1.13
2023-08-25T04:04:24.110Z,1.40
2023-08-25T04:06:55.179Z,0.90
2023-08-25T04:09:24.733Z,1.10
2023-08-25T04:11:55.945Z,1.10
2023-08-25T04:14:25.900Z,1.10
2023-08-25T04:16:55.540Z,1.20
2023-08-25T04:19:25.145Z,1.30
2023-08-25T04:21:54.743Z,1.03
2023-08-25T04:24:24.800Z,1.13
2023-08-25T04:26:55.226Z,1.30
2023-08-25T04:29:24.772Z,1.27
2023-08-25T04:31:54.662Z,1.30
2023-08-25T04:34:24.252Z,1.27
2023-08-25T04:36:53.981Z,1.20
2023-08-25T04:39:23.709Z,1.20
2023-08-25T04:41:53.249Z,1.60
2023-08-25T04:44:23.082Z,1.60
2023-08-25T04:46:52.610Z,1.00
2023-08-25T04:49:22.436Z,1.50
2023-08-25T04:51:51.975Z,1.17
2023-08-25T04:54:21.530Z,1.60
2023-08-25T04:56:51.088Z,1.17
2023-08-25T04:59:20.633Z,1.87
2023-08-25T05:01:50.244Z,1.30
2023-08-25T05:04:19.859Z,1.40
2023-08-25T05:06:49.406Z,1.43
2023-08-25T05:09:18.952Z,1.37
2023-08-25T05:11:48.572Z,1.27
2023-08-25T05:14:18.110Z,1.60
2023-08-25T05:16:47.869Z,1.47
2023-08-25T05:19:17.420Z,1.80
2023-08-25T05:21:46.991Z,1.80
2023-08-25T05:24:29.981Z,1.57
2023-08-25T05:26:59.717Z,1.60
2023-08-25T05:29:30.587Z,1.63
2023-08-25T05:32:01.006Z,1.10
2023-08-25T05:34:32.621Z,1.43
2023-08-25T05:37:02.154Z,1.80
2023-08-25T05:39:31.703Z,1.80
2023-08-25T05:42:01.257Z,1.80
2023-08-25T05:44:30.872Z,1.73
2023-08-25T05:47:00.851Z,1.70
2023-08-25T05:49:30.399Z,1.50
2023-08-25T05:51:59.967Z,1.40
2023-08-25T05:54:29.496Z,1.30
2023-08-25T05:57:00.030Z,1.40
2023-08-25T05:59:29.558Z,1.90
2023-08-25T06:01:59.222Z,1.70
2023-08-25T06:04:29.424Z,1.30
2023-08-25T06:06:58.969Z,1.60
2023-08-25T06:09:28.903Z,1.60
2023-08-25T06:11:58.483Z,1.70
2023-08-25T06:14:29.428Z,1.30
2023-08-25T06:17:06.446Z,1.60
2023-08-25T06:19:37.544Z,1.60
2023-08-25T06:22:07.215Z,2.10
2023-08-25T06:24:36.831Z,1.97
2023-08-25T06:27:06.364Z,2.00
2023-08-25T06:29:35.932Z,2.10
2023-08-25T06:32:05.598Z,2.07
2023-08-25T06:34:35.161Z,2.20
2023-08-25T06:37:04.724Z,2.27
2023-08-25T06:39:34.274Z,2.17
2023-08-25T06:42:03.831Z,2.07
2023-08-25T06:44:33.394Z,1.97
2023-08-25T06:47:03.211Z,2.20
2023-08-25T06:49:32.753Z,2.20
2023-08-25T06:52:02.299Z,2.23
2023-08-25T06:54:32.125Z,2.10
2023-08-25T06:57:01.685Z,2.00
2023-08-25T06:59:31.240Z,2.10
2023-08-25T07:02:00.792Z,2.30
2023-08-25T07:04:30.341Z,2.00
2023-08-25T07:07:00.045Z,2.13
2023-08-25T07:09:31.980Z,2.25
2023-08-25T07:12:01.532Z,1.90
2023-08-25T07:14:33.362Z,2.00
2023-08-25T07:17:03.898Z,1.80
2023-08-25T07:19:33.466Z,2.30
2023-08-25T07:22:03.575Z,2.10
2023-08-25T07:24:33.152Z,2.05
2023-08-25T07:27:02.695Z,2.10
2023-08-25T07:29:32.244Z,2.08
2023-08-25T07:32:01.789Z,2.03
2023-08-25T07:34:31.413Z,1.95
2023-08-25T07:37:01.537Z,2.05
2023-08-25T07:39:31.101Z,1.95
2023-08-25T07:42:00.694Z,2.13
2023-08-25T07:44:30.247Z,1.70
2023-08-25T07:47:00.094Z,2.00
2023-08-25T07:49:29.734Z,1.80
2023-08-25T07:51:59.300Z,1.90
2023-08-25T07:54:30.313Z,1.87
2023-08-25T07:56:59.859Z,2.08
2023-08-25T07:59:29.414Z,1.80
2023-08-25T08:01:58.959Z,1.65
2023-08-25T08:04:30.650Z,1.75
2023-08-25T08:07:01.859Z,1.80
2023-08-25T08:09:32.921Z,1.40
2023-08-25T08:12:02.672Z,1.50
2023-08-25T08:14:44.975Z,1.30
2023-08-25T08:17:05.813Z,1.40
2023-08-25T08:19:35.476Z,1.37
2023-08-25T08:22:05.112Z,1.30
2023-08-25T08:24:49.650Z,1.27
2023-08-25T08:27:09.232Z,1.33
2023-08-25T08:29:38.787Z,1.20
2023-08-25T08:32:08.788Z,1.50
2023-08-25T08:34:39.100Z,1.33
2023-08-25T08:37:08.719Z,1.23
2023-08-25T08:39:39.021Z,1.00
2023-08-25T08:42:15.248Z,0.90
2023-08-25T08:44:51.404Z,1.10
2023-08-25T08:47:23.357Z,1.10
2023-08-25T08:49:54.675Z,1.00
2023-08-25T08:52:24.427Z,1.20
2023-08-25T08:54:54.088Z,1.00
2023-08-25T08:57:25.479Z,1.07
2023-08-25T08:59:56.083Z,1.23
2023-08-25T09:02:30.052Z,1.00
2023-08-25T09:05:03.641Z,1.02
2023-08-25T09:07:35.661Z,0.73
2023-08-25T09:10:05.794Z,1.17
2023-08-25T09:12:36.163Z,1.43
2023-08-25T09:15:08.900Z,0.80
2023-08-25T09:17:39.093Z,0.87
2023-08-25T09:20:10.750Z,0.70
2023-08-25T09:22:40.386Z,0.80
2023-08-25T09:25:11.260Z,0.90
2023-08-25T09:27:42.389Z,0.80
2023-08-25T09:30:12.468Z,0.90
2023-08-25T09:32:42.017Z,0.77
2023-08-25T09:35:18.340Z,0.90
2023-08-25T09:37:48.394Z,0.83
2023-08-25T09:40:19.664Z,0.83
2023-08-25T09:42:49.421Z,0.80
2023-08-25T09:45:19.027Z,0.90
2023-08-25T09:47:48.653Z,0.70
2023-08-25T09:50:19.103Z,0.80
2023-08-25T09:52:54.090Z,0.80
2023-08-25T09:55:24.976Z,0.80
2023-08-25T09:57:55.432Z,0.87
2023-08-25T10:00:25.342Z,0.80
2023-08-25T10:02:55.705Z,0.90
2023-08-25T10:05:25.471Z,0.87
2023-08-25T10:07:55.427Z,0.83
2023-08-25T10:10:26.848Z,0.80
2023-08-25T10:12:59.259Z,0.90
2023-08-25T10:15:32.152Z,0.90
2023-08-25T10:18:06.951Z,0.87
2023-08-25T10:20:38.683Z,0.70
2023-08-25T10:23:10.003Z,0.93
2023-08-25T10:25:40.606Z,0.70
2023-08-25T10:28:11.147Z,0.87
2023-08-25T10:30:41.316Z,0.50
2023-08-25T10:33:53.384Z,0.50
2023-08-25T10:36:26.286Z,0.87
2023-08-25T10:39:03.338Z,0.87
2023-08-25T10:41:42.860Z,0.70
2023-08-25T10:44:22.467Z,0.70
2023-08-25T10:46:52.208Z,0.70
2023-08-25T10:49:21.837Z,0.97
2023-08-25T10:51:51.440Z,1.13
2023-08-25T10:54:24.735Z,0.80
2023-08-25T10:56:52.598Z,0.80
2023-08-25T10:59:23.972Z,0.87
2023-08-25T11:01:59.630Z,0.70
2023-08-25T11:04:31.388Z,0.90
2023-08-25T11:07:02.070Z,0.77
2023-08-25T11:09:33.877Z,0.90
2023-08-25T11:12:09.344Z,0.90
2023-08-25T11:14:42.807Z,0.83
2023-08-25T11:17:13.567Z,0.70
2023-08-25T11:19:44.028Z,0.83
2023-08-25T11:22:14.210Z,0.72
2023-08-25T11:24:45.328Z,0.80
2023-08-25T11:27:16.774Z,0.90
2023-08-25T11:29:46.813Z,0.90
2023-08-25T11:32:17.643Z,1.10
2023-08-25T11:34:50.333Z,0.97
2023-08-25T11:37:19.892Z,0.70
2023-08-25T11:39:49.511Z,1.50
2023-08-25T11:42:23.232Z,1.13
2023-08-25T11:44:54.247Z,0.80
2023-08-25T11:47:27.644Z,1.30
2023-08-25T11:49:58.885Z,1.30
2023-08-25T11:52:28.787Z,1.23
2023-08-25T11:54:58.902Z,1.40
2023-08-25T11:57:39.192Z,1.40
2023-08-25T12:00:12.204Z,1.10
2023-08-25T12:02:41.756Z,1.10
2023-08-25T12:05:12.573Z,1.10
2023-08-25T12:07:42.712Z,1.10
2023-08-25T12:10:12.536Z,1.20
2023-08-25T12:12:42.088Z,1.10
2023-08-25T12:15:11.967Z,1.10
2023-08-25T12:17:43.447Z,0.82
2023-08-25T12:20:18.853Z,0.80
2023-08-25T12:23:00.979Z,0.80
2023-08-25T12:25:32.774Z,0.80
2023-08-25T12:28:02.574Z,1.20
2023-08-25T12:30:33.891Z,1.07
2023-08-25T12:33:03.693Z,0.83
2023-08-25T12:35:33.550Z,1.10
2023-08-25T12:38:03.335Z,0.95
2023-08-25T12:40:32.898Z,1.30
2023-08-25T12:43:02.428Z,0.70
2023-08-25T12:45:31.976Z,0.80
2023-08-25T12:48:01.631Z,1.00
2023-08-25T12:50:31.280Z,1.10
2023-08-25T12:53:00.831Z,1.10
2023-08-25T12:55:30.463Z,1.00
2023-08-25T12:58:00.061Z,1.20
2023-08-25T13:00:30.523Z,1.30
2023-08-25T13:03:02.065Z,1.00
2023-08-25T13:05:32.730Z,1.00
2023-08-25T13:08:02.263Z,0.70
2023-08-25T13:10:31.824Z,1.53
2023-08-25T13:13:02.431Z,1.20
2023-08-25T13:15:33.765Z,0.90
2023-08-25T13:18:03.300Z,0.70
2023-08-25T13:20:33.107Z,0.90
2023-08-25T13:23:04.010Z,0.80
2023-08-25T13:25:34.465Z,0.90
2023-08-25T13:28:04.035Z,1.00
2023-08-25T13:30:33.572Z,0.90
2023-08-25T13:33:03.209Z,1.10
2023-08-25T13:35:32.787Z,1.53
2023-08-25T13:38:02.327Z,1.10
2023-08-25T13:40:32.021Z,1.10
2023-08-25T13:43:02.220Z,1.47
2023-08-25T13:45:31.855Z,1.60
2023-08-25T13:48:01.449Z,1.60
2023-08-25T13:50:31.804Z,1.10
2023-08-25T13:53:01.612Z,1.30
2023-08-25T13:55:31.689Z,1.40
2023-08-25T13:58:01.838Z,1.13
2023-08-25T14:00:31.958Z,1.30
2023-08-25T14:03:01.768Z,1.33
2023-08-25T14:05:31.429Z,1.20
2023-08-25T14:08:01.118Z,1.13
2023-08-25T14:10:32.384Z,1.30
2023-08-25T14:13:01.935Z,1.47
2023-08-25T14:15:31.512Z,1.60
2023-08-25T14:18:01.094Z,1.70
2023-08-25T14:20:30.694Z,1.77
2023-08-25T14:23:01.898Z,1.23
2023-08-25T14:25:32.178Z,1.57
2023-08-25T14:28:03.544Z,1.50
2023-08-25T14:30:34.907Z,1.70
2023-08-25T14:33:04.583Z,1.50
2023-08-25T14:35:34.190Z,1.47
2023-08-25T14:38:03.748Z,1.30
2023-08-25T14:40:33.312Z,1.33
2023-08-25T14:43:03.137Z,1.03
2023-08-25T14:45:38.258Z,1.37
2023-08-25T14:48:08.523Z,1.23
2023-08-25T14:50:38.202Z,1.10
2023-08-25T14:53:09.645Z,1.70
2023-08-25T14:55:39.796Z,1.10
2023-08-25T14:58:09.346Z,1.80
2023-08-25T15:00:39.091Z,1.53
2023-08-25T15:03:09.265Z,1.30
2023-08-25T15:05:38.902Z,1.63
2023-08-25T15:08:08.677Z,1.60
2023-08-25T15:10:41.378Z,1.83
2023-08-25T15:13:10.955Z,1.60
2023-08-25T15:15:40.654Z,1.80
2023-08-25T15:18:10.321Z,1.60
2023-08-25T15:20:39.885Z,1.60
2023-08-25T15:23:09.570Z,1.50
2023-08-25T15:25:39.092Z,1.53
2023-08-25T15:28:08.739Z,1.30
2023-08-25T15:30:38.273Z,1.47
2023-08-25T15:33:07.963Z,1.20
2023-08-25T15:35:42.352Z,1.17
2023-08-25T15:38:11.915Z,1.00
2023-08-25T15:40:41.465Z,1.60
2023-08-25T15:43:11.014Z,1.10
2023-08-25T15:45:42.211Z,1.23
2023-08-25T15:48:11.828Z,1.60
2023-08-25T15:50:49.710Z,1.13
2023-08-25T15:53:22.121Z,1.40
2023-08-25T15:55:52.981Z,1.20
2023-08-25T15:58:23.431Z,1.20
2023-08-25T16:01:02.696Z,1.23
2023-08-25T16:03:33.414Z,1.10
2023-08-25T16:06:05.922Z,1.60
2023-08-25T16:08:35.527Z,1.80
2023-08-25T16:11:10.416Z,1.67
2023-08-25T16:13:41.420Z,1.70
2023-08-25T16:16:11.581Z,1.83
2023-08-25T16:18:42.772Z,1.47
2023-08-25T16:21:12.514Z,1.37
2023-08-25T16:23:42.226Z,1.80
2023-08-25T16:26:11.787Z,1.43
2023-08-25T16:28:41.577Z,1.80
2023-08-25T16:31:15.263Z,1.27
2023-08-25T16:33:44.100Z,1.80
2023-08-25T16:36:14.185Z,1.40
2023-08-25T16:38:43.828Z,1.90
2023-08-25T16:41:13.378Z,1.80
2023-08-25T16:43:42.989Z,1.50
2023-08-25T16:46:12.577Z,1.30
2023-08-25T16:48:42.086Z,1.50
2023-08-25T16:51:11.669Z,1.27
2023-08-25T16:53:41.219Z,1.40
2023-08-25T16:56:10.804Z,1.53
2023-08-25T16:58:40.565Z,1.60
2023-08-25T17:01:17.057Z,1.20
2023-08-25T17:03:47.076Z,1.00
2023-08-25T17:06:18.948Z,0.90
2023-08-25T17:08:48.732Z,1.20
2023-08-25T17:11:18.307Z,1.20
2023-08-25T17:13:47.843Z,1.00
2023-08-25T17:16:17.477Z,0.90
2023-08-25T17:18:47.052Z,1.30
2023-08-25T17:21:18.435Z,1.37
2023-08-25T17:23:48.420Z,1.30
2023-08-25T17:26:18.017Z,1.37
2023-08-25T17:28:47.743Z,1.57
2023-08-25T17:31:17.351Z,1.43
2023-08-25T17:33:46.962Z,1.67
2023-08-25T17:36:16.626Z,1.50
2023-08-25T17:38:47.090Z,2.00
2023-08-25T17:41:16.723Z,1.70
2023-08-25T17:43:46.334Z,2.10
2023-08-25T17:46:16.129Z,1.77
2023-08-25T17:48:45.711Z,1.80
2023-08-25T17:51:15.326Z,1.77
2023-08-25T17:53:44.936Z,1.40
2023-08-25T17:56:14.496Z,1.63
2023-08-25T17:58:44.033Z,1.70
2023-08-25T18:01:13.862Z,1.40
2023-08-25T18:03:43.505Z,1.20
2023-08-25T18:06:13.922Z,1.10
2023-08-25T18:08:43.470Z,1.20
2023-08-25T18:11:13.149Z,1.00
2023-08-25T18:13:42.676Z,0.87
2023-08-25T18:16:12.308Z,1.10
2023-08-25T18:18:42.983Z,0.97
2023-08-25T18:21:12.548Z,1.00
2023-08-25T18:23:42.073Z,1.00
2023-08-25T18:26:11.614Z,0.97
2023-08-25T18:28:41.184Z,1.20
2023-08-25T18:31:10.792Z,1.10
2023-08-25T18:33:40.374Z,1.30
2023-08-25T18:36:12.424Z,1.23
2023-08-25T18:38:42.994Z,1.40
2023-08-25T18:41:12.546Z,1.30
2023-08-25T18:43:42.102Z,1.70
2023-08-25T18:46:11.668Z,2.13
2023-08-25T18:48:41.509Z,2.00
2023-08-25T18:51:11.115Z,1.70
2023-08-25T18:53:40.804Z,1.50
2023-08-25T18:56:12.087Z,1.70
2023-08-25T18:58:41.980Z,0.93
2023-08-25T19:01:12.856Z,1.20
2023-08-25T19:03:42.635Z,0.90
2023-08-25T19:06:13.531Z,0.73
2023-08-25T19:08:43.547Z,1.10
2023-08-25T19:11:13.114Z,1.30
2023-08-25T19:13:45.510Z,0.97
2023-08-25T19:16:15.107Z,1.00
2023-08-25T19:18:44.896Z,1.17
2023-08-25T19:21:14.492Z,0.90
2023-08-25T19:23:45.747Z,1.40
2023-08-25T19:26:16.662Z,1.10
2023-08-25T19:28:47.210Z,0.80
2023-08-25T19:31:18.470Z,1.23
2023-08-25T19:33:48.364Z,1.00
2023-08-25T19:36:17.917Z,1.23
2023-08-25T19:38:47.504Z,0.97
2023-08-25T19:41:17.683Z,1.30
2023-08-25T19:43:48.826Z,1.20
2023-08-25T19:46:19.032Z,0.80
2023-08-25T19:48:48.890Z,1.40
2023-08-25T19:51:18.909Z,1.60
2023-08-25T19:53:49.759Z,1.20
2023-08-25T19:56:19.319Z,1.00
2023-08-25T19:58:52.727Z,1.13
2023-08-25T20:01:22.463Z,1.40
2023-08-25T20:03:52.222Z,1.87
2023-08-25T20:06:21.876Z,1.53
2023-08-25T20:08:51.428Z,1.40
2023-08-25T20:11:22.628Z,1.27
2023-08-25T20:13:53.626Z,1.37
2023-08-25T20:16:24.788Z,1.60
2023-08-25T20:18:54.391Z,1.13
2023-08-25T20:21:25.421Z,1.20
2023-08-25T20:23:55.583Z,1.20
2023-08-25T20:26:25.141Z,1.10
2023-08-25T20:28:54.672Z,1.20
2023-08-25T20:31:24.310Z,1.30
2023-08-25T20:33:53.966Z,1.30
2023-08-25T20:36:23.520Z,1.20
2023-08-25T20:38:53.130Z,1.33
2023-08-25T20:41:22.690Z,1.10
2023-08-25T20:43:52.240Z,0.80
2023-08-25T20:46:23.004Z,1.10
2023-08-25T20:48:53.413Z,0.90
2023-08-25T20:51:27.810Z,1.10
2023-08-25T20:53:59.018Z,0.90
2023-08-25T20:56:31.240Z,1.00
2023-08-25T20:59:00.864Z,0.93
2023-08-25T21:01:30.476Z,1.10
2023-08-25T21:04:00.214Z,1.00
2023-08-25T21:06:33.544Z,1.20
2023-08-25T21:09:03.769Z,0.90
2023-08-25T21:11:33.330Z,1.07
2023-08-25T21:14:03.593Z,0.77
2023-08-25T21:16:36.496Z,1.00
2023-08-25T21:19:07.692Z,1.00
2023-08-25T21:21:38.867Z,0.97
2023-08-25T21:24:11.357Z,0.97
2023-08-25T21:26:41.234Z,1.27
2023-08-25T21:29:11.256Z,1.17
2023-08-25T21:31:41.228Z,1.03
2023-08-25T21:34:13.084Z,1.20
2023-08-25T21:36:42.631Z,0.97
2023-08-25T21:39:12.170Z,0.90
2023-08-25T21:41:41.728Z,0.87
2023-08-25T21:44:11.368Z,1.00
2023-08-25T21:46:40.935Z,0.80
2023-08-25T21:49:10.852Z,0.90
2023-08-25T21:51:40.458Z,1.10
2023-08-25T21:54:10.021Z,0.90
2023-08-25T21:56:39.684Z,0.90
2023-08-25T21:59:09.252Z,1.00
2023-08-25T22:01:38.863Z,1.00
2023-08-25T22:04:11.238Z,0.83
2023-08-25T22:06:40.508Z,0.77
2023-08-25T22:09:10.626Z,0.90
2023-08-25T22:11:40.152Z,0.77
2023-08-25T22:14:09.702Z,0.80
2023-08-25T22:16:40.219Z,1.20
2023-08-25T22:19:09.940Z,0.90
2023-08-25T22:21:39.998Z,1.00
2023-08-25T22:24:09.768Z,0.80
2023-08-25T22:26:40.954Z,0.83
2023-08-25T22:29:12.061Z,0.67
2023-08-25T22:31:46.999Z,0.60
2023-08-25T22:34:16.752Z,0.73
2023-08-25T22:36:46.270Z,0.93
2023-08-25T22:39:17.524Z,0.70
2023-08-25T22:41:47.553Z,0.77
2023-08-25T22:44:17.360Z,0.60
2023-08-25T22:46:46.910Z,0.70
2023-08-25T22:49:16.823Z,0.60
2023-08-25T22:51:46.368Z,0.50
2023-08-25T22:54:16.303Z,0.63
2023-08-25T22:56:46.029Z,0.60
2023-08-25T22:59:15.595Z,0.90
2023-08-25T23:01:46.894Z,0.57
2023-08-25T23:04:18.167Z,0.60
2023-08-25T23:06:48.907Z,0.70
2023-08-25T23:09:20.121Z,0.60
2023-08-25T23:11:50.014Z,0.50
2023-08-25T23:14:19.571Z,0.40
2023-08-25T23:16:49.115Z,0.60
2023-08-25T23:19:18.673Z,0.60
2023-08-25T23:21:48.202Z,0.60
2023-08-25T23:24:17.759Z,0.60
2023-08-25T23:26:48.946Z,0.60
2023-08-25T23:29:18.937Z,0.50
2023-08-25T23:31:48.529Z,0.40
2023-08-25T23:34:18.283Z,0.50
2023-08-25T23:36:47.830Z,0.40
2023-08-25T23:39:17.625Z,0.60
2023-08-25T23:41:47.232Z,0.83
2023-08-25T23:44:16.761Z,0.40
2023-08-25T23:46:47.862Z,0.53
2023-08-25T23:49:17.402Z,0.50
2023-08-25T23:51:47.289Z,0.50
2023-08-25T23:54:17.153Z,0.50
2023-08-25T23:56:46.730Z,0.40
2023-08-25T23:59:16.642Z,0.40
